createdAt,value
2023-09-16T00:00:23.702Z,17.00
2023-09-16T00:01:25.829Z,17.03
2023-09-16T00:02:27.912Z,17.05
2023-09-16T00:03:30.028Z,17.05
2023-09-16T00:04:32.107Z,17.06
2023-09-16T00:05:35.524Z,17.08
2023-09-16T00:06:37.605Z,17.09
2023-09-16T00:07:39.630Z,17.09
2023-09-16T00:08:43.512Z,17.10
2023-09-16T00:09:45.559Z,17.11
2023-09-16T00:10:49.043Z,17.12
2023-09-16T00:11:51.270Z,17.06
2023-09-16T00:12:53.334Z,17.07
2023-09-16T00:13:55.936Z,17.08
2023-09-16T00:14:57.965Z,17.09
2023-09-16T00:16:00.044Z,17.10
2023-09-16T00:17:05.279Z,17.11
2023-09-16T00:18:07.442Z,17.09
2023-09-16T00:19:11.027Z,17.09
2023-09-16T00:20:16.400Z,17.08
2023-09-16T00:21:19.118Z,17.07
2023-09-16T00:22:22.743Z,17.06
2023-09-16T00:23:24.732Z,17.04
2023-09-16T00:24:26.759Z,17.07
2023-09-16T00:25:28.797Z,17.06
2023-09-16T00:26:30.768Z,17.07
2023-09-16T00:27:32.775Z,17.09
2023-09-16T00:28:36.668Z,17.07
2023-09-16T00:29:38.694Z,17.08
2023-09-16T00:30:43.930Z,17.05
2023-09-16T00:31:46.216Z,17.05
2023-09-16T00:32:48.295Z,17.06
2023-09-16T00:33:50.702Z,17.06
2023-09-16T00:34:52.777Z,17.10
2023-09-16T00:35:54.807Z,17.09
2023-09-16T00:36:56.852Z,17.13
2023-09-16T00:37:58.875Z,17.12
2023-09-16T00:39:00.893Z,17.11
2023-09-16T00:40:03.265Z,17.15
2023-09-16T00:41:05.300Z,17.17
2023-09-16T00:42:07.318Z,17.20
2023-09-16T00:43:09.318Z,17.22
2023-09-16T00:44:11.835Z,17.20
2023-09-16T00:45:15.490Z,17.23
2023-09-16T00:46:17.810Z,17.22
2023-09-16T00:47:19.853Z,17.24
2023-09-16T00:48:21.867Z,17.24
2023-09-16T00:49:23.892Z,17.26
2023-09-16T00:50:25.895Z,17.26
2023-09-16T00:51:28.024Z,17.25
2023-09-16T00:52:30.682Z,17.26
2023-09-16T00:53:32.688Z,17.23
2023-09-16T00:54:35.048Z,17.26
2023-09-16T00:55:37.034Z,17.27
2023-09-16T00:56:39.054Z,17.28
2023-09-16T00:57:42.004Z,17.30
2023-09-16T00:58:44.028Z,17.30
2023-09-16T00:59:46.015Z,17.33
2023-09-16T01:00:48.093Z,17.33
2023-09-16T01:01:53.318Z,17.33
2023-09-16T01:02:55.658Z,17.34
2023-09-16T01:03:57.736Z,17.35
2023-09-16T01:04:59.892Z,17.37
2023-09-16T01:06:02.020Z,17.34
2023-09-16T01:07:04.220Z,17.35
2023-09-16T01:08:06.350Z,17.38
2023-09-16T01:09:09.890Z,17.39
2023-09-16T01:10:11.946Z,17.37
2023-09-16T01:11:14.022Z,17.35
2023-09-16T01:12:16.026Z,17.35
2023-09-16T01:13:18.035Z,17.33
2023-09-16T01:14:20.055Z,17.35
2023-09-16T01:15:23.780Z,17.36
2023-09-16T01:16:37.390Z,17.36
2023-09-16T01:17:43.811Z,17.40
2023-09-16T01:18:49.023Z,17.41
2023-09-16T01:19:58.349Z,17.41
2023-09-16T01:21:00.375Z,17.40
2023-09-16T01:22:02.514Z,17.43
2023-09-16T01:23:04.589Z,17.45
2023-09-16T01:24:24.906Z,17.45
2023-09-16T01:25:27.987Z,17.47
2023-09-16T01:26:29.973Z,17.41
2023-09-16T01:27:31.958Z,17.42
2023-09-16T01:28:33.994Z,17.40
2023-09-16T01:29:36.052Z,17.42
2023-09-16T01:30:39.635Z,17.43
2023-09-16T01:31:42.387Z,17.39
2023-09-16T01:32:48.423Z,17.37
2023-09-16T01:33:50.652Z,17.33
2023-09-16T01:34:54.208Z,17.29
2023-09-16T01:36:00.150Z,17.25
2023-09-16T01:37:02.215Z,17.20
2023-09-16T01:38:04.728Z,17.15
2023-09-16T01:39:06.803Z,17.16
2023-09-16T01:40:09.335Z,17.13
2023-09-16T01:41:11.399Z,17.08
2023-09-16T01:42:13.407Z,17.08
2023-09-16T01:43:16.478Z,17.06
2023-09-16T01:44:18.464Z,17.04
2023-09-16T01:45:20.436Z,17.02
2023-09-16T01:46:22.458Z,17.01
2023-09-16T01:47:24.562Z,17.04
2023-09-16T01:48:36.586Z,17.01
2023-09-16T01:49:42.723Z,17.01
2023-09-16T01:50:46.136Z,17.04
2023-09-16T01:51:48.181Z,17.04
2023-09-16T01:52:50.209Z,17.04
2023-09-16T01:53:52.234Z,17.08
2023-09-16T01:54:54.305Z,17.09
2023-09-16T01:55:56.319Z,17.06
2023-09-16T01:56:58.528Z,17.07
2023-09-16T01:58:00.544Z,17.11
2023-09-16T01:59:02.899Z,17.07
2023-09-16T02:00:06.629Z,17.08
2023-09-16T02:01:09.697Z,17.10
2023-09-16T02:02:12.537Z,17.07
2023-09-16T02:03:14.548Z,17.07
2023-09-16T02:04:16.578Z,17.07
2023-09-16T02:05:18.588Z,17.09
2023-09-16T02:06:20.605Z,17.08
2023-09-16T02:07:22.623Z,17.10
2023-09-16T02:08:24.645Z,17.11
2023-09-16T02:09:26.623Z,17.12
2023-09-16T02:10:29.504Z,17.07
2023-09-16T02:11:32.335Z,17.08
2023-09-16T02:12:34.767Z,17.10
2023-09-16T02:13:37.223Z,17.12
2023-09-16T02:14:40.207Z,17.12
2023-09-16T02:15:47.085Z,17.09
2023-09-16T02:16:49.197Z,17.08
2023-09-16T02:17:51.446Z,17.09
2023-09-16T02:18:53.499Z,17.09
2023-09-16T02:19:55.516Z,17.10
2023-09-16T02:20:57.482Z,17.08
2023-09-16T02:21:59.507Z,17.08
2023-09-16T02:23:03.004Z,17.09
2023-09-16T02:24:05.627Z,17.09
2023-09-16T02:25:07.902Z,17.06
2023-09-16T02:26:09.911Z,17.03
2023-09-16T02:27:13.539Z,17.02
2023-09-16T02:28:15.819Z,17.05
2023-09-16T02:29:17.840Z,17.02
2023-09-16T02:30:19.812Z,17.01
2023-09-16T02:31:21.871Z,16.99
2023-09-16T02:32:23.960Z,17.01
2023-09-16T02:33:26.086Z,17.02
2023-09-16T02:34:28.434Z,17.00
2023-09-16T02:35:30.411Z,17.03
2023-09-16T02:36:32.411Z,16.99
2023-09-16T02:37:34.409Z,17.01
2023-09-16T02:38:36.372Z,17.03
2023-09-16T02:39:38.384Z,17.03
2023-09-16T02:40:43.426Z,16.99
2023-09-16T02:41:45.399Z,16.99
2023-09-16T02:42:47.412Z,16.98
2023-09-16T02:43:49.480Z,16.95
2023-09-16T02:44:52.122Z,16.97
2023-09-16T02:45:57.107Z,16.96
2023-09-16T02:46:59.141Z,16.97
2023-09-16T02:48:01.158Z,17.00
2023-09-16T02:49:04.423Z,16.96
2023-09-16T02:50:08.624Z,16.95
2023-09-16T02:51:10.982Z,16.96
2023-09-16T02:52:13.055Z,16.98
2023-09-16T02:53:15.080Z,17.00
2023-09-16T02:54:17.438Z,16.96
2023-09-16T02:55:19.454Z,16.97
2023-09-16T02:56:21.509Z,16.98
2023-09-16T02:57:23.485Z,16.95
2023-09-16T02:58:25.469Z,16.94
2023-09-16T02:59:27.434Z,16.98
2023-09-16T03:00:29.429Z,16.98
2023-09-16T03:01:31.454Z,16.94
2023-09-16T03:02:33.815Z,16.95
2023-09-16T03:03:36.488Z,16.95
2023-09-16T03:04:38.546Z,16.92
2023-09-16T03:05:46.672Z,16.93
2023-09-16T03:06:49.525Z,16.90
2023-09-16T03:07:51.530Z,16.90
2023-09-16T03:08:53.963Z,16.87
2023-09-16T03:09:56.233Z,16.80
2023-09-16T03:11:04.880Z,16.84
2023-09-16T03:12:06.919Z,16.81
2023-09-16T03:13:08.967Z,16.76
2023-09-16T03:14:11.011Z,16.74
2023-09-16T03:15:13.009Z,16.72
2023-09-16T03:16:22.481Z,16.70
2023-09-16T03:17:24.561Z,16.65
2023-09-16T03:18:26.597Z,16.66
2023-09-16T03:19:29.668Z,16.63
2023-09-16T03:20:31.717Z,16.60
2023-09-16T03:21:33.761Z,16.61
2023-09-16T03:22:35.810Z,16.64
2023-09-16T03:23:37.848Z,16.61
2023-09-16T03:24:40.186Z,16.59
2023-09-16T03:25:42.190Z,16.57
2023-09-16T03:26:44.240Z,16.55
2023-09-16T03:27:46.344Z,16.55
2023-09-16T03:28:48.701Z,16.56
2023-09-16T03:29:51.008Z,16.55
2023-09-16T03:30:53.107Z,16.54
2023-09-16T03:31:55.353Z,16.53
2023-09-16T03:32:57.501Z,16.53
2023-09-16T03:33:59.644Z,16.51
2023-09-16T03:35:01.704Z,16.52
2023-09-16T03:36:03.932Z,16.55
2023-09-16T03:37:05.940Z,16.53
2023-09-16T03:38:07.954Z,16.53
2023-09-16T03:39:09.972Z,16.52
2023-09-16T03:40:11.978Z,16.54
2023-09-16T03:41:14.373Z,16.53
2023-09-16T03:42:16.365Z,16.55
2023-09-16T03:43:19.350Z,16.54
2023-09-16T03:44:21.356Z,16.57
2023-09-16T03:45:29.696Z,16.59
2023-09-16T03:46:33.259Z,16.57
2023-09-16T03:47:35.388Z,16.58
2023-09-16T03:48:37.468Z,16.60
2023-09-16T03:49:39.502Z,16.61
2023-09-16T03:50:41.510Z,16.61
2023-09-16T03:51:43.517Z,16.61
2023-09-16T03:52:45.493Z,16.63
2023-09-16T03:53:48.464Z,16.63
2023-09-16T03:54:50.484Z,16.63
2023-09-16T03:55:55.440Z,16.62
2023-09-16T03:56:57.410Z,16.65
2023-09-16T03:58:01.646Z,16.65
2023-09-16T03:59:03.890Z,16.65
2023-09-16T04:00:07.895Z,16.64
2023-09-16T04:01:09.885Z,16.65
2023-09-16T04:02:11.901Z,16.63
2023-09-16T04:03:13.913Z,16.60
2023-09-16T04:04:15.978Z,16.59
2023-09-16T04:05:18.028Z,16.64
2023-09-16T04:06:20.027Z,16.64
2023-09-16T04:07:23.506Z,16.63
2023-09-16T04:08:30.687Z,16.65
2023-09-16T04:09:40.042Z,16.68
2023-09-16T04:10:42.075Z,16.70
2023-09-16T04:11:44.082Z,16.69
2023-09-16T04:12:46.699Z,16.70
2023-09-16T04:13:50.147Z,16.72
2023-09-16T04:14:52.389Z,16.71
2023-09-16T04:15:55.821Z,16.73
2023-09-16T04:16:57.884Z,16.72
2023-09-16T04:17:59.958Z,16.76
2023-09-16T04:19:02.032Z,16.73
2023-09-16T04:20:07.196Z,16.74
2023-09-16T04:21:09.284Z,16.72
2023-09-16T04:22:11.307Z,16.74
2023-09-16T04:23:13.375Z,16.75
2023-09-16T04:24:15.360Z,16.74
2023-09-16T04:25:17.382Z,16.77
2023-09-16T04:26:21.655Z,16.75
2023-09-16T04:27:23.733Z,16.76
2023-09-16T04:28:25.969Z,16.76
2023-09-16T04:29:28.100Z,16.79
2023-09-16T04:30:30.132Z,16.80
2023-09-16T04:31:32.162Z,16.82
2023-09-16T04:32:34.237Z,16.84
2023-09-16T04:33:36.270Z,16.85
2023-09-16T04:34:38.290Z,16.85
2023-09-16T04:35:50.537Z,16.86
2023-09-16T04:36:56.002Z,16.87
2023-09-16T04:37:58.029Z,16.92
2023-09-16T04:39:00.040Z,16.94
2023-09-16T04:40:09.119Z,16.94
2023-09-16T04:41:11.185Z,16.95
2023-09-16T04:42:13.164Z,16.95
2023-09-16T04:43:15.381Z,16.96
2023-09-16T04:44:17.635Z,16.96
2023-09-16T04:45:19.628Z,16.98
2023-09-16T04:46:21.744Z,16.97
2023-09-16T04:47:24.277Z,16.96
2023-09-16T04:48:26.413Z,16.97
2023-09-16T04:49:28.429Z,16.98
2023-09-16T04:50:30.761Z,17.01
2023-09-16T04:51:34.969Z,17.02
2023-09-16T04:52:37.235Z,17.02
2023-09-16T04:53:39.213Z,17.06
2023-09-16T04:54:42.197Z,17.10
2023-09-16T04:55:44.301Z,17.11
2023-09-16T04:56:46.265Z,17.12
2023-09-16T04:57:48.270Z,17.13
2023-09-16T04:58:51.342Z,17.14
2023-09-16T04:59:53.568Z,17.16
2023-09-16T05:00:55.595Z,17.20
2023-09-16T05:02:00.911Z,17.22
2023-09-16T05:03:03.084Z,17.22
2023-09-16T05:04:05.217Z,17.24
2023-09-16T05:05:07.571Z,17.24
2023-09-16T05:06:09.614Z,17.27
2023-09-16T05:07:11.613Z,17.31
2023-09-16T05:08:13.701Z,17.33
2023-09-16T05:09:15.697Z,17.37
2023-09-16T05:10:17.729Z,17.40
2023-09-16T05:11:19.733Z,17.42
2023-09-16T05:12:21.744Z,17.43
2023-09-16T05:13:23.763Z,17.44
2023-09-16T05:14:25.876Z,17.44
2023-09-16T05:15:27.966Z,17.46
2023-09-16T05:16:30.112Z,17.47
2023-09-16T05:17:32.165Z,17.51
2023-09-16T05:18:34.147Z,17.53
2023-09-16T05:19:36.164Z,17.56
2023-09-16T05:20:38.198Z,17.58
2023-09-16T05:21:40.246Z,17.62
2023-09-16T05:22:42.533Z,17.64
2023-09-16T05:23:44.576Z,17.63
2023-09-16T05:24:46.675Z,17.66
2023-09-16T05:25:49.577Z,17.69
2023-09-16T05:26:51.557Z,17.72
2023-09-16T05:27:53.591Z,17.73
2023-09-16T05:28:57.802Z,17.79
2023-09-16T05:29:59.799Z,17.79
2023-09-16T05:31:03.952Z,17.80
2023-09-16T05:32:06.218Z,17.83
2023-09-16T05:33:08.413Z,17.88
2023-09-16T05:34:10.441Z,17.89
2023-09-16T05:35:12.454Z,17.90
2023-09-16T05:36:14.438Z,17.90
2023-09-16T05:37:16.398Z,17.96
2023-09-16T05:38:18.380Z,17.97
2023-09-16T05:39:20.343Z,18.00
2023-09-16T05:40:22.342Z,18.02
2023-09-16T05:41:24.344Z,18.08
2023-09-16T05:42:26.335Z,18.10
2023-09-16T05:43:28.321Z,18.11
2023-09-16T05:44:30.289Z,18.14
2023-09-16T05:45:32.646Z,18.18
2023-09-16T05:46:34.782Z,18.21
2023-09-16T05:47:36.859Z,18.18
2023-09-16T05:48:38.894Z,18.21
2023-09-16T05:49:40.869Z,18.25
2023-09-16T05:50:42.868Z,18.30
2023-09-16T05:51:45.066Z,18.32
2023-09-16T05:52:47.077Z,18.35
2023-09-16T05:53:49.074Z,18.35
2023-09-16T05:54:51.069Z,18.36
2023-09-16T05:55:54.347Z,18.38
2023-09-16T05:56:56.366Z,18.37
2023-09-16T05:58:01.782Z,18.42
2023-09-16T05:59:04.591Z,18.41
2023-09-16T06:00:07.804Z,18.45
2023-09-16T06:01:09.988Z,18.43
2023-09-16T06:02:12.133Z,18.45
2023-09-16T06:03:14.142Z,18.48
2023-09-16T06:04:16.217Z,18.48
2023-09-16T06:05:18.271Z,18.49
2023-09-16T06:06:20.919Z,18.51
2023-09-16T06:07:26.964Z,18.49
2023-09-16T06:08:29.064Z,18.50
2023-09-16T06:09:31.063Z,18.54
2023-09-16T06:10:33.097Z,18.51
2023-09-16T06:11:35.072Z,18.54
2023-09-16T06:12:37.099Z,18.52
2023-09-16T06:13:39.201Z,18.55
2023-09-16T06:14:41.203Z,18.58
2023-09-16T06:15:45.101Z,18.58
2023-09-16T06:16:47.218Z,18.58
2023-09-16T06:17:49.331Z,18.59
2023-09-16T06:18:51.603Z,18.58
2023-09-16T06:19:55.678Z,18.62
2023-09-16T06:20:57.675Z,18.61
2023-09-16T06:21:59.735Z,18.65
2023-09-16T06:23:04.413Z,18.68
2023-09-16T06:24:06.519Z,18.70
2023-09-16T06:25:08.768Z,18.75
2023-09-16T06:26:11.677Z,18.75
2023-09-16T06:27:15.404Z,18.76
2023-09-16T06:28:17.426Z,18.76
2023-09-16T06:29:19.436Z,18.77
2023-09-16T06:30:21.438Z,18.77
2023-09-16T06:31:23.509Z,18.81
2023-09-16T06:32:25.564Z,18.84
2023-09-16T06:33:27.554Z,18.81
2023-09-16T06:34:29.559Z,18.79
2023-09-16T06:35:31.549Z,18.83
2023-09-16T06:36:33.604Z,18.77
2023-09-16T06:37:35.665Z,18.74
2023-09-16T06:38:37.637Z,18.75
2023-09-16T06:39:41.371Z,18.75
2023-09-16T06:40:43.407Z,18.77
2023-09-16T06:41:45.365Z,18.75
2023-09-16T06:42:50.212Z,18.76
2023-09-16T06:43:52.305Z,18.72
2023-09-16T06:44:56.200Z,18.68
2023-09-16T06:45:58.268Z,18.71
2023-09-16T06:47:00.347Z,18.70
2023-09-16T06:48:02.435Z,18.72
2023-09-16T06:49:04.480Z,18.70
2023-09-16T06:50:09.616Z,18.67
2023-09-16T06:51:11.678Z,18.67
2023-09-16T06:52:13.796Z,18.71
2023-09-16T06:53:20.816Z,18.73
2023-09-16T06:54:22.828Z,18.73
2023-09-16T06:55:24.872Z,18.72
2023-09-16T06:56:26.856Z,18.71
2023-09-16T06:57:28.858Z,18.77
2023-09-16T06:58:31.145Z,18.77
2023-09-16T06:59:33.151Z,18.76
2023-09-16T07:00:36.542Z,18.77
2023-09-16T07:01:38.649Z,18.76
2023-09-16T07:02:40.744Z,18.81
2023-09-16T07:03:42.906Z,18.81
2023-09-16T07:04:46.776Z,18.82
2023-09-16T07:05:49.377Z,18.82
2023-09-16T07:06:51.416Z,18.78
2023-09-16T07:07:54.061Z,18.82
2023-09-16T07:08:56.072Z,18.86
2023-09-16T07:09:58.126Z,18.85
2023-09-16T07:11:00.159Z,18.84
2023-09-16T07:12:02.197Z,18.83
2023-09-16T07:13:04.362Z,18.84
2023-09-16T07:14:06.369Z,18.90
2023-09-16T07:15:08.811Z,18.90
2023-09-16T07:16:12.716Z,18.98
2023-09-16T07:17:14.818Z,18.96
2023-09-16T07:18:16.807Z,18.99
2023-09-16T07:19:18.883Z,18.99
2023-09-16T07:20:20.899Z,19.04
2023-09-16T07:21:22.936Z,19.06
2023-09-16T07:22:26.631Z,19.10
2023-09-16T07:23:28.676Z,19.10
2023-09-16T07:24:30.678Z,19.12
2023-09-16T07:25:32.690Z,19.08
2023-09-16T07:26:34.686Z,19.11
2023-09-16T07:27:36.684Z,19.12
2023-09-16T07:28:38.702Z,19.12
2023-09-16T07:29:40.712Z,19.09
2023-09-16T07:30:42.732Z,19.09
2023-09-16T07:31:44.835Z,19.09
2023-09-16T07:32:47.031Z,19.13
2023-09-16T07:33:49.273Z,19.14
2023-09-16T07:34:51.295Z,19.19
2023-09-16T07:35:54.170Z,19.18
2023-09-16T07:36:57.747Z,19.18
2023-09-16T07:37:59.802Z,19.17
2023-09-16T07:39:01.808Z,19.17
2023-09-16T07:40:04.040Z,19.13
2023-09-16T07:41:06.088Z,19.15
2023-09-16T07:42:08.059Z,19.13
2023-09-16T07:43:12.102Z,19.16
2023-09-16T07:44:14.170Z,19.14
2023-09-16T07:45:16.389Z,19.19
2023-09-16T07:46:18.432Z,19.14
2023-09-16T07:47:20.502Z,19.19
2023-09-16T07:48:22.512Z,19.16
2023-09-16T07:49:24.520Z,19.19
2023-09-16T07:50:26.542Z,19.17
2023-09-16T07:51:28.522Z,19.19
2023-09-16T07:52:31.192Z,19.20
2023-09-16T07:53:33.200Z,19.20
2023-09-16T07:54:35.268Z,19.20
2023-09-16T07:55:37.290Z,19.22
2023-09-16T07:56:39.264Z,19.26
2023-09-16T07:57:41.359Z,19.29
2023-09-16T07:58:43.446Z,19.32
2023-09-16T07:59:45.451Z,19.33
2023-09-16T08:00:47.543Z,19.34
2023-09-16T08:01:49.729Z,19.37
2023-09-16T08:02:51.919Z,19.36
2023-09-16T08:03:54.161Z,19.37
2023-09-16T08:04:56.429Z,19.38
2023-09-16T08:05:59.149Z,19.38
2023-09-16T08:07:01.167Z,19.38
2023-09-16T08:08:03.815Z,19.42
2023-09-16T08:09:05.834Z,19.40
2023-09-16T08:10:08.225Z,19.45
2023-09-16T08:11:10.327Z,19.48
2023-09-16T08:12:12.419Z,19.49
2023-09-16T08:13:14.472Z,19.54
2023-09-16T08:14:16.483Z,19.56
2023-09-16T08:15:18.469Z,19.60
2023-09-16T08:16:20.541Z,19.55
2023-09-16T08:17:22.532Z,19.60
2023-09-16T08:18:24.527Z,19.67
2023-09-16T08:19:26.581Z,19.64
2023-09-16T08:20:30.098Z,19.65
2023-09-16T08:21:32.146Z,19.68
2023-09-16T08:22:34.180Z,19.68
2023-09-16T08:23:36.244Z,19.66
2023-09-16T08:24:38.218Z,19.70
2023-09-16T08:25:40.223Z,19.70
2023-09-16T08:26:42.259Z,19.69
2023-09-16T08:27:44.277Z,19.70
2023-09-16T08:28:46.330Z,19.70
2023-09-16T08:29:50.771Z,19.73
2023-09-16T08:30:52.872Z,19.71
2023-09-16T08:31:54.986Z,19.75
2023-09-16T08:32:57.154Z,19.77
2023-09-16T08:34:02.037Z,19.73
2023-09-16T08:35:04.114Z,19.76
2023-09-16T08:36:06.208Z,19.76
2023-09-16T08:37:09.814Z,19.79
2023-09-16T08:38:12.056Z,19.74
2023-09-16T08:39:14.085Z,19.83
2023-09-16T08:40:16.702Z,19.83
2023-09-16T08:41:22.065Z,19.85
2023-09-16T08:42:52.291Z,19.91
2023-09-16T08:43:54.963Z,19.94
2023-09-16T08:44:57.420Z,19.95
2023-09-16T08:46:03.477Z,19.99
2023-09-16T08:47:11.576Z,20.02
2023-09-16T08:48:15.956Z,20.03
2023-09-16T08:49:18.238Z,20.06
2023-09-16T08:50:22.488Z,20.10
2023-09-16T08:51:24.477Z,20.16
2023-09-16T08:52:26.650Z,20.20
2023-09-16T08:53:29.773Z,20.25
2023-09-16T08:54:31.785Z,20.25
2023-09-16T08:55:36.283Z,20.28
2023-09-16T08:56:38.299Z,20.33
2023-09-16T08:57:56.020Z,20.36
2023-09-16T08:58:58.043Z,20.40
2023-09-16T09:00:00.077Z,20.46
2023-09-16T09:01:04.007Z,20.46
2023-09-16T09:02:06.309Z,20.46
2023-09-16T09:03:08.384Z,20.56
2023-09-16T09:04:10.843Z,20.62
2023-09-16T09:05:13.005Z,20.67
2023-09-16T09:06:23.346Z,20.75
2023-09-16T09:07:33.618Z,20.81
2023-09-16T09:08:35.672Z,20.81
2023-09-16T09:09:37.681Z,20.86
2023-09-16T09:10:41.005Z,20.92
2023-09-16T09:11:44.621Z,20.96
2023-09-16T09:12:48.163Z,21.00
2023-09-16T09:13:50.265Z,21.16
2023-09-16T09:14:52.240Z,21.24
2023-09-16T09:15:57.848Z,21.34
2023-09-16T09:17:01.715Z,21.44
2023-09-16T09:18:03.999Z,21.43
2023-09-16T09:19:06.072Z,21.51
2023-09-16T09:20:21.397Z,21.54
2023-09-16T09:21:23.380Z,21.57
2023-09-16T09:22:25.403Z,21.63
2023-09-16T09:23:27.411Z,21.68
2023-09-16T09:24:29.499Z,21.74
2023-09-16T09:25:34.035Z,21.76
2023-09-16T09:26:36.063Z,21.79
2023-09-16T09:27:38.038Z,21.80
2023-09-16T09:28:39.999Z,21.82
2023-09-16T09:29:42.056Z,21.91
2023-09-16T09:30:44.146Z,21.94
2023-09-16T09:31:46.820Z,21.92
2023-09-16T09:32:48.912Z,21.97
2023-09-16T09:33:51.254Z,21.99
2023-09-16T09:34:53.232Z,22.05
2023-09-16T09:36:13.873Z,22.17
2023-09-16T09:37:16.782Z,22.21
2023-09-16T09:38:19.211Z,22.25
2023-09-16T09:39:21.228Z,22.32
2023-09-16T09:40:23.235Z,22.34
2023-09-16T09:41:25.272Z,22.40
2023-09-16T09:42:27.276Z,22.40
2023-09-16T09:43:32.682Z,22.42
2023-09-16T09:44:35.724Z,22.41
2023-09-16T09:45:38.995Z,22.51
2023-09-16T09:46:41.181Z,22.54
2023-09-16T09:47:43.375Z,22.56
2023-09-16T09:48:45.541Z,22.59
2023-09-16T09:49:48.810Z,22.61
2023-09-16T09:50:51.031Z,22.61
2023-09-16T09:51:53.137Z,22.59
2023-09-16T09:52:55.828Z,22.65
2023-09-16T09:53:57.868Z,22.68
2023-09-16T09:55:01.753Z,22.68
2023-09-16T09:56:04.880Z,22.76
2023-09-16T09:57:06.996Z,22.78
2023-09-16T09:58:09.049Z,22.86
2023-09-16T09:59:11.166Z,22.84
2023-09-16T10:00:17.700Z,22.87
2023-09-16T10:01:19.784Z,22.75
2023-09-16T10:02:27.774Z,22.86
2023-09-16T10:03:29.991Z,22.94
2023-09-16T10:04:32.136Z,22.94
2023-09-16T10:05:36.339Z,23.01
2023-09-16T10:06:38.335Z,22.91
2023-09-16T10:07:42.977Z,23.06
2023-09-16T10:08:45.057Z,23.16
2023-09-16T10:09:47.131Z,23.20
2023-09-16T10:10:49.444Z,23.26
2023-09-16T10:11:52.241Z,23.35
2023-09-16T10:12:57.558Z,23.52
2023-09-16T10:14:00.752Z,23.58
2023-09-16T10:15:05.791Z,23.70
2023-09-16T10:16:07.838Z,23.79
2023-09-16T10:17:11.588Z,23.93
2023-09-16T10:18:14.827Z,24.08
2023-09-16T10:19:16.886Z,24.16
2023-09-16T10:20:19.007Z,24.26
2023-09-16T10:21:20.998Z,24.30
2023-09-16T10:22:23.118Z,24.31
2023-09-16T10:23:25.220Z,24.39
2023-09-16T10:24:27.197Z,24.41
2023-09-16T10:25:31.521Z,24.29
2023-09-16T10:26:35.934Z,24.33
2023-09-16T10:27:45.992Z,24.44
2023-09-16T10:28:50.154Z,24.58
2023-09-16T10:29:52.367Z,24.72
2023-09-16T10:30:54.409Z,24.71
2023-09-16T10:31:56.441Z,24.72
2023-09-16T10:33:16.107Z,24.78
2023-09-16T10:34:18.191Z,24.78
2023-09-16T10:35:21.003Z,24.82
2023-09-16T10:36:23.128Z,24.84
2023-09-16T10:37:25.214Z,24.83
2023-09-16T10:38:27.325Z,24.80
2023-09-16T10:39:29.320Z,25.02
2023-09-16T10:40:31.577Z,25.09
2023-09-16T10:41:34.552Z,25.14
2023-09-16T10:42:36.576Z,25.05
2023-09-16T10:43:38.577Z,25.26
2023-09-16T10:44:41.176Z,25.45
2023-09-16T10:45:43.214Z,25.49
2023-09-16T10:46:45.562Z,25.63
2023-09-16T10:47:47.996Z,25.68
2023-09-16T10:48:53.239Z,25.61
2023-09-16T10:49:55.641Z,25.77
2023-09-16T10:50:59.062Z,25.88
2023-09-16T10:52:03.959Z,26.01
2023-09-16T10:53:37.858Z,26.12
2023-09-16T10:54:45.230Z,26.22
2023-09-16T10:56:26.579Z,26.37
2023-09-16T10:57:34.919Z,26.58
2023-09-16T10:58:50.088Z,26.62
2023-09-16T10:59:53.051Z,26.68
2023-09-16T11:00:56.110Z,26.97
2023-09-16T11:02:00.989Z,27.25
2023-09-16T11:03:03.098Z,27.52
2023-09-16T11:04:10.962Z,28.00
2023-09-16T11:05:13.026Z,28.39
2023-09-16T11:06:15.007Z,28.82
2023-09-16T11:07:16.997Z,29.34
2023-09-16T11:08:19.008Z,29.77
2023-09-16T11:09:25.019Z,30.00
2023-09-16T11:10:27.024Z,30.75
2023-09-16T11:11:29.016Z,31.14
2023-09-16T11:12:31.103Z,31.22
2023-09-16T11:13:33.115Z,31.80
2023-09-16T11:14:35.123Z,32.12
2023-09-16T11:15:37.307Z,32.66
2023-09-16T11:16:46.179Z,32.93
2023-09-16T11:17:49.049Z,33.12
2023-09-16T11:18:52.446Z,33.30
2023-09-16T11:19:55.077Z,33.65
2023-09-16T11:20:57.054Z,33.49
2023-09-16T11:21:59.555Z,33.62
2023-09-16T11:23:08.044Z,33.65
2023-09-16T11:24:10.757Z,33.66
2023-09-16T11:25:12.903Z,33.37
2023-09-16T11:26:24.060Z,33.09
2023-09-16T11:27:26.401Z,33.00
2023-09-16T11:28:29.539Z,32.62
2023-09-16T11:29:34.727Z,32.29
2023-09-16T11:30:37.236Z,31.91
2023-09-16T11:31:39.481Z,31.31
2023-09-16T11:33:02.467Z,30.92
2023-09-16T11:34:04.489Z,30.54
2023-09-16T11:35:06.659Z,30.63
2023-09-16T11:36:08.914Z,30.42
2023-09-16T11:37:10.969Z,30.39
2023-09-16T11:38:13.168Z,30.19
2023-09-16T11:39:19.584Z,30.10
2023-09-16T11:40:28.241Z,29.83
2023-09-16T11:41:30.248Z,29.74
2023-09-16T11:42:32.219Z,29.62
2023-09-16T11:43:34.244Z,29.61
2023-09-16T11:44:37.035Z,29.72
2023-09-16T11:45:39.079Z,29.23
2023-09-16T11:46:41.452Z,29.06
2023-09-16T11:47:43.510Z,28.73
2023-09-16T11:48:49.887Z,28.33
2023-09-16T11:49:52.125Z,28.00
2023-09-16T11:50:54.132Z,27.82
2023-09-16T11:51:56.347Z,27.60
2023-09-16T11:52:58.412Z,27.33
2023-09-16T11:54:00.446Z,27.25
2023-09-16T11:55:02.676Z,27.04
2023-09-16T11:56:05.400Z,26.97
2023-09-16T11:57:07.454Z,26.71
2023-09-16T11:58:09.429Z,26.63
2023-09-16T11:59:11.823Z,26.44
2023-09-16T12:00:14.202Z,26.34
2023-09-16T12:01:23.531Z,26.31
2023-09-16T12:02:25.648Z,26.23
2023-09-16T12:03:27.720Z,26.09
2023-09-16T12:04:29.768Z,26.04
2023-09-16T12:05:31.801Z,25.94
2023-09-16T12:06:36.286Z,25.88
2023-09-16T12:07:38.517Z,25.77
2023-09-16T12:08:41.115Z,25.62
2023-09-16T12:09:43.139Z,25.61
2023-09-16T12:10:45.124Z,25.52
2023-09-16T12:11:51.625Z,25.43
2023-09-16T12:12:53.701Z,25.38
2023-09-16T12:13:56.249Z,25.38
2023-09-16T12:15:00.614Z,25.25
2023-09-16T12:16:02.689Z,25.21
2023-09-16T12:17:04.819Z,25.13
2023-09-16T12:18:07.883Z,25.09
2023-09-16T12:19:12.741Z,25.10
2023-09-16T12:20:14.850Z,24.98
2023-09-16T12:21:16.827Z,25.01
2023-09-16T12:22:19.821Z,24.94
2023-09-16T12:23:21.863Z,24.81
2023-09-16T12:24:25.489Z,24.82
2023-09-16T12:25:28.249Z,24.82
2023-09-16T12:26:30.352Z,24.75
2023-09-16T12:27:32.324Z,24.72
2023-09-16T12:28:34.355Z,24.67
2023-09-16T12:29:36.396Z,24.71
2023-09-16T12:30:46.617Z,24.72
2023-09-16T12:31:48.874Z,24.67
2023-09-16T12:32:52.329Z,24.69
2023-09-16T12:33:57.087Z,24.70
2023-09-16T12:35:10.086Z,24.70
2023-09-16T12:36:28.599Z,24.73
2023-09-16T12:37:30.825Z,24.78
2023-09-16T12:38:35.922Z,24.79
2023-09-16T12:39:37.912Z,24.82
2023-09-16T12:40:39.936Z,24.92
2023-09-16T12:41:44.536Z,24.89
2023-09-16T12:42:46.531Z,24.80
2023-09-16T12:43:48.499Z,24.82
2023-09-16T12:44:50.484Z,24.85
2023-09-16T12:45:52.547Z,24.86
2023-09-16T12:46:54.611Z,24.91
2023-09-16T12:47:56.980Z,24.98
2023-09-16T12:48:59.110Z,25.02
2023-09-16T12:50:01.119Z,25.03
2023-09-16T12:51:03.124Z,25.06
2023-09-16T12:52:05.331Z,25.25
2023-09-16T12:53:07.346Z,25.43
2023-09-16T12:54:09.365Z,25.49
2023-09-16T12:55:12.736Z,25.57
2023-09-16T12:56:20.580Z,25.60
2023-09-16T12:57:24.001Z,25.60
2023-09-16T12:58:26.095Z,25.69
2023-09-16T12:59:28.198Z,25.64
2023-09-16T13:00:30.178Z,25.65
2023-09-16T13:01:32.378Z,25.63
2023-09-16T13:02:37.830Z,25.60
2023-09-16T13:03:39.986Z,25.59
2023-09-16T13:04:42.029Z,25.35
2023-09-16T13:05:52.017Z,25.51
2023-09-16T13:06:54.458Z,25.57
2023-09-16T13:07:58.284Z,25.34
2023-09-16T13:09:00.610Z,25.49
2023-09-16T13:10:02.649Z,25.54
2023-09-16T13:11:04.698Z,25.54
2023-09-16T13:12:06.699Z,25.56
2023-09-16T13:13:08.699Z,25.56
2023-09-16T13:14:13.146Z,25.52
2023-09-16T13:15:21.798Z,25.44
2023-09-16T13:16:26.661Z,25.49
2023-09-16T13:17:28.752Z,25.49
2023-09-16T13:18:30.812Z,25.58
2023-09-16T13:19:32.814Z,25.54
2023-09-16T13:20:37.751Z,25.58
2023-09-16T13:21:39.867Z,25.61
2023-09-16T13:22:45.708Z,25.63
2023-09-16T13:23:51.669Z,25.60
2023-09-16T13:24:53.681Z,25.60
2023-09-16T13:25:57.213Z,25.60
2023-09-16T13:26:59.714Z,25.64
2023-09-16T13:28:15.778Z,25.65
2023-09-16T13:29:17.791Z,25.63
2023-09-16T13:30:23.823Z,25.66
2023-09-16T13:31:26.654Z,25.70
2023-09-16T13:32:28.762Z,25.71